メインページ
METAR-TAF:

METAR-TAF

空港 :

レジャイナ, サスカチュワン州, カナダ

緯度: 50-26N, 経度: 104-40W, 海抜: 577m

現時点の気象観測

当レポートは1時間7分前の03:00(UTC)に作成
南東の風 13kt
気温 -11°C
湿度 85%
気圧 1006 hPa
視程: 3.2km
高度2500ftの曇り
小雪, 低い地吹雪

METAR: CYQR 130300Z 13013KT 2SM -SN DRSN OVC025 M11/M13 A2972 RMK SC8 /S01/ SLP115

時間: 22:07 (04:07 UTC)

予報

当レポートは4時間29分前の23:38(UTC)に作成
予報は13日の 00時(UTC)から 13日の 24時(UTC)まで有効
南東の風 12kt、最大22ktの突風を伴う
視程: 10km
高度3000ftの曇り
小雪
13日の 00時(UTC)から 13日の 09時(UTC)まで一時的に
高度1200ftの
小雪
13日の 04時(UTC)から 13日の 06時(UTC)まで徐々に
東/北東の風 7kt
13日の 0900時(UTC)から
北/北西の風 12kt
視程: 10km
高度2500ftの曇り
小雪
13日の 09時(UTC)から 13日の 15時(UTC)まで一時的に
視程: 3.2km
高度600ftの千切れ雲あり
高度2500ftの曇り
小雪
13日の 1500時(UTC)から
の風 12kt
視程: 10km
高度2500ftの千切れ雲あり
13日の 15時(UTC)から 13日の 18時(UTC)まで一時的に
視程: 8.0km
高度1500ftの千切れ雲あり
小雪
13日の 1800時(UTC)から
の風 15kt
視程: 10km
高度3000ftの千切れ雲あり

TAF: CYQR 122338Z 1300/1324 14012G22KT P6SM -SN OVC030 TEMPO 1300/1309 11/2SM -SN VV012 BECMG 1304/1306 06007KT FM130900 34012KT P6SM -SN OVC025 TEMPO 1309/1315 2SM -SN BKN006 OVC025 FM131500 35012KT P6SM BKN025 TEMPO 1315/1318 5SM -SN BKN015 FM131800 35015KT P6SM BKN030 RMK NXT FCST BY 130600Z

4,000以上の空港の気象観測と天気予報(METAR報とTAF報)

利用可能な観測所は地図上に黄色い丸と赤い丸で示す。

丸の上にカーソルを重ねると観測所名を参照できる。

次にクリックすると気象観測と天気予報を参照できる。

マップの切り替え:黒色「×」印の緑ボタンをクリックして拡大、「-」印の緑ボタンをクリックして縮小、緑色の三角印をクリックして隣りの地図に切り替え


METAR-TAF: